AXB1378 VOHS-VOBL
Flight info
| Callsign | AXB1378 |
|---|---|
| Flight time | N/A |
| Altitude | 32000 |
| Route | LURGI7 LURGI Q21 TELUV TELUV7E |
| Aircraft | B738/M-SDE2E3FGHIRWXY/LB1 |
Departure
| Time | 2026-04-20 13:33 |
|---|---|
| Airport | Rajiv Gandhi International Airport (VOHS) |
Arrival
| Time | N/A |
|---|---|
| Airport | Kempegowda International Airport Bengaluru (VOBL) |
| Time | Latitude | Longitude | Altitude | Speed | Heading |
|---|---|---|---|---|---|
| 2026-04-20 13:20 | 17.23402 | 78.42956 | 1999 ft | 0 kts | 360° |
| 2026-04-20 13:25 | 17.23388 | 78.42956 | 2000 ft | 2 kts | 359° |
| 2026-04-20 13:25 | 17.23373 | 78.42956 | 2000 ft | 2 kts | 360° |
| 2026-04-20 13:25 | 17.23362 | 78.42956 | 2000 ft | 0 kts | 360° |
| 2026-04-20 13:26 | 17.23348 | 78.42957 | 2001 ft | 2 kts | 332° |
| 2026-04-20 13:26 | 17.23337 | 78.42967 | 2001 ft | 2 kts | 304° |
| 2026-04-20 13:26 | 17.23331 | 78.42982 | 2002 ft | 1 kts | 275° |
| 2026-04-20 13:26 | 17.23331 | 78.42988 | 2002 ft | 1 kts | 266° |
| 2026-04-20 13:27 | 17.23331 | 78.42991 | 2002 ft | 0 kts | 268° |
| 2026-04-20 13:29 | 17.23331 | 78.42971 | 2001 ft | 4 kts | 268° |
| 2026-04-20 13:29 | 17.23329 | 78.42920 | 2000 ft | 9 kts | 269° |
| 2026-04-20 13:29 | 17.23328 | 78.42838 | 1997 ft | 13 kts | 269° |
| 2026-04-20 13:29 | 17.23320 | 78.42742 | 1993 ft | 0 kts | 248° |
| 2026-04-20 13:30 | 17.23314 | 78.42734 | 1993 ft | 2 kts | 205° |
| 2026-04-20 13:30 | 17.23288 | 78.42730 | 1993 ft | 4 kts | 183° |
| 2026-04-20 13:30 | 17.23254 | 78.42731 | 1992 ft | 5 kts | 179° |
| 2026-04-20 13:30 | 17.23206 | 78.42731 | 1992 ft | 8 kts | 178° |
| 2026-04-20 13:31 | 17.23140 | 78.42733 | 1991 ft | 10 kts | 186° |
| 2026-04-20 13:31 | 17.23088 | 78.42677 | 1988 ft | 12 kts | 256° |
| 2026-04-20 13:31 | 17.23082 | 78.42569 | 1984 ft | 16 kts | 268° |
| 2026-04-20 13:31 | 17.23082 | 78.42432 | 1979 ft | 20 kts | 270° |
| 2026-04-20 13:32 | 17.23072 | 78.42270 | 1973 ft | 23 kts | 245° |
| 2026-04-20 13:32 | 17.22946 | 78.42237 | 1972 ft | 19 kts | 173° |
| 2026-04-20 13:32 | 17.22874 | 78.42323 | 1975 ft | 15 kts | 89° |
| 2026-04-20 13:32 | 17.22875 | 78.42451 | 1980 ft | 27 kts | 89° |
| 2026-04-20 13:33 | 17.22883 | 78.42954 | 1998 ft | 120 kts | 89° |
| 2026-04-20 13:33 | 17.22897 | 78.44147 | 2060 ft | 202 kts | 89° |
| 2026-04-20 13:33 | 17.22913 | 78.45741 | 2636 ft | 236 kts | 90° |
| 2026-04-20 13:33 | 17.22946 | 78.47540 | 3764 ft | 257 kts | 93° |
| 2026-04-20 13:34 | 17.22546 | 78.49152 | 5427 ft | 230 kts | 122° |
| 2026-04-20 13:34 | 17.21581 | 78.50406 | 6560 ft | 237 kts | 128° |
| 2026-04-20 13:34 | 17.20375 | 78.51841 | 6187 ft | 283 kts | 135° |
| 2026-04-20 13:34 | 17.18687 | 78.52909 | 5922 ft | 282 kts | 162° |
| 2026-04-20 13:35 | 17.16735 | 78.53111 | 5917 ft | 279 kts | 179° |
| 2026-04-20 13:35 | 17.14794 | 78.53002 | 5955 ft | 277 kts | 181° |
| 2026-04-20 13:35 | 17.12817 | 78.52872 | 6235 ft | 299 kts | 180° |
| 2026-04-20 13:35 | 17.10745 | 78.52788 | 7512 ft | 304 kts | 180° |
| 2026-04-20 13:36 | 17.08647 | 78.52740 | 8926 ft | 304 kts | 179° |
| 2026-04-20 13:36 | 17.06588 | 78.52709 | 10315 ft | 304 kts | 179° |
| 2026-04-20 13:36 | 17.04427 | 78.52683 | 11355 ft | 319 kts | 180° |
| 2026-04-20 13:36 | 17.02139 | 78.52657 | 12250 ft | 338 kts | 180° |
| 2026-04-20 13:37 | 16.99754 | 78.52626 | 13080 ft | 347 kts | 180° |
| 2026-04-20 13:37 | 16.97262 | 78.52592 | 13776 ft | 369 kts | 181° |
| 2026-04-20 13:37 | 16.94644 | 78.52554 | 14597 ft | 386 kts | 181° |
| 2026-04-20 13:37 | 16.91915 | 78.52512 | 15545 ft | 397 kts | 181° |
| 2026-04-20 13:38 | 16.89135 | 78.52469 | 16596 ft | 404 kts | 181° |
| 2026-04-20 13:38 | 16.86302 | 78.52426 | 17649 ft | 409 kts | 181° |
| 2026-04-20 13:38 | 16.83447 | 78.52383 | 18629 ft | 416 kts | 181° |
| 2026-04-20 13:38 | 16.80530 | 78.52341 | 19672 ft | 420 kts | 181° |
| 2026-04-20 13:39 | 16.77608 | 78.52298 | 20589 ft | 426 kts | 182° |
| 2026-04-20 13:39 | 16.74627 | 78.52254 | 21482 ft | 432 kts | 182° |
| 2026-04-20 13:39 | 16.71610 | 78.52209 | 22381 ft | 436 kts | 182° |
| 2026-04-20 13:39 | 16.68565 | 78.52164 | 23279 ft | 441 kts | 182° |
| 2026-04-20 13:40 | 16.65456 | 78.52117 | 24171 ft | 445 kts | 183° |
| 2026-04-20 13:40 | 16.62384 | 78.52070 | 25039 ft | 448 kts | 183° |
| 2026-04-20 13:40 | 16.59244 | 78.52022 | 25889 ft | 451 kts | 183° |
| 2026-04-20 13:40 | 16.56093 | 78.51974 | 26692 ft | 455 kts | 184° |
| 2026-04-20 13:41 | 16.52918 | 78.51926 | 27514 ft | 457 kts | 184° |
| 2026-04-20 13:41 | 16.49721 | 78.51878 | 28226 ft | 462 kts | 184° |
| 2026-04-20 13:41 | 16.46502 | 78.51831 | 29027 ft | 463 kts | 184° |
| 2026-04-20 13:41 | 16.43327 | 78.51790 | 30371 ft | 451 kts | 184° |
| 2026-04-20 13:42 | 16.40236 | 78.51752 | 31596 ft | 441 kts | 185° |
| 2026-04-20 13:42 | 16.34057 | 78.51666 | 31881 ft | 439 kts | 185° |
| 2026-04-20 13:42 | 16.31032 | 78.51623 | 31885 ft | 438 kts | 185° |
| 2026-04-20 13:43 | 16.24906 | 78.51531 | 31891 ft | 440 kts | 185° |
| 2026-04-20 13:43 | 16.18794 | 78.51234 | 31882 ft | 435 kts | 190° |
| 2026-04-20 13:44 | 16.12807 | 78.50365 | 31869 ft | 434 kts | 193° |
| 2026-04-20 13:44 | 16.06823 | 78.49335 | 31856 ft | 434 kts | 193° |
| 2026-04-20 13:45 | 16.00829 | 78.48307 | 31850 ft | 436 kts | 193° |
| 2026-04-20 13:45 | 15.94862 | 78.47313 | 31832 ft | 434 kts | 192° |
| 2026-04-20 13:46 | 15.88865 | 78.46336 | 31836 ft | 435 kts | 192° |
| 2026-04-20 13:46 | 15.82846 | 78.45367 | 31824 ft | 435 kts | 192° |
| 2026-04-20 13:47 | 15.76857 | 78.44405 | 31820 ft | 435 kts | 192° |
| 2026-04-20 13:47 | 15.70861 | 78.43447 | 31821 ft | 434 kts | 192° |
| 2026-04-20 13:48 | 15.64870 | 78.42489 | 31812 ft | 436 kts | 192° |
| 2026-04-20 13:48 | 15.58873 | 78.41531 | 31817 ft | 434 kts | 192° |
| 2026-04-20 13:49 | 15.52874 | 78.40572 | 31820 ft | 435 kts | 192° |
| 2026-04-20 13:49 | 15.46863 | 78.39613 | 31818 ft | 434 kts | 192° |
| 2026-04-20 13:50 | 15.40873 | 78.38657 | 31823 ft | 436 kts | 192° |
| 2026-04-20 13:50 | 15.34872 | 78.37700 | 31810 ft | 435 kts | 192° |
| 2026-04-20 13:51 | 15.28881 | 78.36745 | 31814 ft | 434 kts | 192° |
| 2026-04-20 13:51 | 15.22925 | 78.35796 | 31813 ft | 430 kts | 192° |
| 2026-04-20 13:52 | 15.16952 | 78.34840 | 31809 ft | 435 kts | 192° |
| 2026-04-20 13:52 | 15.10940 | 78.33875 | 31809 ft | 434 kts | 192° |
| 2026-04-20 13:53 | 15.04954 | 78.32916 | 31800 ft | 436 kts | 192° |
| 2026-04-20 13:53 | 14.98926 | 78.31950 | 31797 ft | 435 kts | 192° |
| 2026-04-20 13:54 | 14.92923 | 78.30991 | 31797 ft | 434 kts | 192° |
| 2026-04-20 13:54 | 14.86960 | 78.30036 | 31797 ft | 435 kts | 192° |
| 2026-04-20 13:55 | 14.81154 | 78.28461 | 31802 ft | 428 kts | 206° |
| 2026-04-20 13:55 | 14.75924 | 78.25504 | 31806 ft | 427 kts | 213° |
| 2026-04-20 13:56 | 14.70835 | 78.22349 | 31806 ft | 426 kts | 212° |
| 2026-04-20 13:56 | 14.65681 | 78.19299 | 31813 ft | 426 kts | 211° |
| 2026-04-20 13:57 | 14.60459 | 78.16335 | 31830 ft | 428 kts | 210° |
| 2026-04-20 13:57 | 14.55200 | 78.13417 | 31837 ft | 427 kts | 210° |
| 2026-04-20 13:58 | 14.49909 | 78.10510 | 31854 ft | 428 kts | 210° |
| 2026-04-20 13:58 | 14.44653 | 78.07632 | 31869 ft | 428 kts | 210° |
| 2026-04-20 13:59 | 14.39384 | 78.04748 | 31877 ft | 427 kts | 210° |
| 2026-04-20 13:59 | 14.34164 | 78.01895 | 31886 ft | 426 kts | 210° |
| 2026-04-20 14:00 | 14.28908 | 77.99023 | 31895 ft | 425 kts | 210° |
| 2026-04-20 14:00 | 14.23652 | 77.96152 | 31895 ft | 426 kts | 210° |
| 2026-04-20 14:01 | 14.21053 | 77.94733 | 31681 ft | 418 kts | 210° |
| 2026-04-20 14:01 | 14.18516 | 77.93349 | 31256 ft | 414 kts | 210° |
| 2026-04-20 14:01 | 14.15961 | 77.91954 | 30668 ft | 415 kts | 210° |
| 2026-04-20 14:01 | 14.13391 | 77.90550 | 29921 ft | 415 kts | 210° |
| 2026-04-20 14:02 | 14.10852 | 77.89165 | 29086 ft | 417 kts | 210° |
| 2026-04-20 14:02 | 14.08299 | 77.87772 | 28199 ft | 418 kts | 210° |
| 2026-04-20 14:02 | 14.05696 | 77.86352 | 27255 ft | 421 kts | 209° |
| 2026-04-20 14:02 | 14.03112 | 77.84943 | 26274 ft | 424 kts | 209° |
| 2026-04-20 14:03 | 14.00506 | 77.83522 | 25249 ft | 428 kts | 209° |
| 2026-04-20 14:03 | 13.97868 | 77.82085 | 24397 ft | 428 kts | 208° |
| 2026-04-20 14:03 | 13.95195 | 77.80629 | 23689 ft | 443 kts | 208° |
| 2026-04-20 14:03 | 13.92457 | 77.79137 | 22899 ft | 455 kts | 208° |
| 2026-04-20 14:04 | 13.89661 | 77.77616 | 22101 ft | 451 kts | 208° |
| 2026-04-20 14:04 | 13.86898 | 77.76115 | 21318 ft | 445 kts | 208° |
| 2026-04-20 14:04 | 13.84169 | 77.74631 | 20530 ft | 440 kts | 208° |
| 2026-04-20 14:04 | 13.81484 | 77.73173 | 19752 ft | 435 kts | 208° |
| 2026-04-20 14:05 | 13.78836 | 77.71734 | 18973 ft | 431 kts | 208° |
| 2026-04-20 14:05 | 13.76191 | 77.70296 | 18188 ft | 427 kts | 208° |
| 2026-04-20 14:05 | 13.73573 | 77.68871 | 17410 ft | 423 kts | 208° |
| 2026-04-20 14:05 | 13.70980 | 77.67460 | 16644 ft | 419 kts | 207° |
| 2026-04-20 14:06 | 13.68429 | 77.66072 | 15879 ft | 415 kts | 207° |
| 2026-04-20 14:06 | 13.65901 | 77.64696 | 15137 ft | 410 kts | 207° |
| 2026-04-20 14:06 | 13.63364 | 77.63318 | 14385 ft | 405 kts | 207° |
| 2026-04-20 14:06 | 13.60890 | 77.61973 | 13651 ft | 400 kts | 207° |
| 2026-04-20 14:07 | 13.58443 | 77.60643 | 12918 ft | 395 kts | 207° |
| 2026-04-20 14:07 | 13.56021 | 77.59328 | 12353 ft | 395 kts | 207° |
| 2026-04-20 14:07 | 13.53629 | 77.58031 | 12022 ft | 381 kts | 207° |
| 2026-04-20 14:07 | 13.51380 | 77.56810 | 11844 ft | 349 kts | 207° |
| 2026-04-20 14:08 | 13.49297 | 77.55678 | 11756 ft | 337 kts | 207° |
| 2026-04-20 14:08 | 13.47165 | 77.54522 | 11548 ft | 343 kts | 207° |
| 2026-04-20 14:08 | 13.45092 | 77.53398 | 11371 ft | 329 kts | 207° |
| 2026-04-20 14:08 | 13.43117 | 77.52326 | 11080 ft | 314 kts | 207° |
| 2026-04-20 14:09 | 13.41218 | 77.51296 | 10504 ft | 305 kts | 206° |
| 2026-04-20 14:09 | 13.39350 | 77.50285 | 9781 ft | 303 kts | 206° |
| 2026-04-20 14:09 | 13.37511 | 77.49288 | 9265 ft | 293 kts | 206° |
| 2026-04-20 14:09 | 13.35754 | 77.48335 | 8884 ft | 280 kts | 206° |
| 2026-04-20 14:10 | 13.34055 | 77.47414 | 8518 ft | 274 kts | 206° |
| 2026-04-20 14:10 | 13.32363 | 77.46498 | 8492 ft | 274 kts | 205° |
| 2026-04-20 14:10 | 13.30643 | 77.45591 | 8438 ft | 276 kts | 206° |
| 2026-04-20 14:10 | 13.28999 | 77.44654 | 8264 ft | 260 kts | 208° |
| 2026-04-20 14:11 | 13.27483 | 77.43776 | 8093 ft | 239 kts | 206° |
| 2026-04-20 14:11 | 13.26078 | 77.42961 | 7851 ft | 225 kts | 207° |
| 2026-04-20 14:11 | 13.24756 | 77.42157 | 7588 ft | 215 kts | 207° |
| 2026-04-20 14:11 | 13.23405 | 77.41639 | 7255 ft | 203 kts | 180° |
| 2026-04-20 14:12 | 13.22096 | 77.41938 | 6893 ft | 191 kts | 143° |
| 2026-04-20 14:12 | 13.21354 | 77.42934 | 6797 ft | 163 kts | 104° |
| 2026-04-20 14:12 | 13.21235 | 77.44093 | 6841 ft | 170 kts | 94° |
| 2026-04-20 14:12 | 13.21126 | 77.45312 | 6874 ft | 172 kts | 98° |
| 2026-04-20 14:13 | 13.21009 | 77.46470 | 6851 ft | 155 kts | 93° |
| 2026-04-20 14:13 | 13.20967 | 77.47566 | 6873 ft | 154 kts | 92° |
| 2026-04-20 14:13 | 13.20936 | 77.48656 | 6855 ft | 152 kts | 92° |
| 2026-04-20 14:13 | 13.20911 | 77.49779 | 6731 ft | 169 kts | 91° |
| 2026-04-20 14:14 | 13.20889 | 77.51059 | 6541 ft | 184 kts | 91° |
| 2026-04-20 14:14 | 13.20874 | 77.52395 | 6334 ft | 188 kts | 91° |
| 2026-04-20 14:14 | 13.20867 | 77.53714 | 6114 ft | 187 kts | 91° |
| 2026-04-20 14:14 | 13.20864 | 77.55048 | 5811 ft | 182 kts | 91° |
| 2026-04-20 14:15 | 13.20865 | 77.56311 | 5505 ft | 173 kts | 90° |
| 2026-04-20 14:15 | 13.20866 | 77.57523 | 5205 ft | 167 kts | 90° |
| 2026-04-20 14:15 | 13.20870 | 77.58684 | 4901 ft | 161 kts | 91° |
| 2026-04-20 14:15 | 13.20873 | 77.59802 | 4592 ft | 152 kts | 91° |
| 2026-04-20 14:16 | 13.20871 | 77.60881 | 4291 ft | 152 kts | 91° |
| 2026-04-20 14:16 | 13.20878 | 77.61945 | 4108 ft | 149 kts | 90° |
| 2026-04-20 14:16 | 13.20871 | 77.63033 | 3862 ft | 154 kts | 92° |
| 2026-04-20 14:16 | 13.20817 | 77.64104 | 3710 ft | 151 kts | 94° |
| 2026-04-20 14:17 | 13.20811 | 77.65193 | 3568 ft | 154 kts | 91° |
| 2026-04-20 14:17 | 13.20769 | 77.66267 | 3424 ft | 151 kts | 94° |
| 2026-04-20 14:17 | 13.20759 | 77.67370 | 3288 ft | 152 kts | 91° |
| 2026-04-20 14:17 | 13.20736 | 77.68460 | 3087 ft | 154 kts | 91° |
| 2026-04-20 14:18 | 13.20715 | 77.69531 | 3015 ft | 148 kts | 94° |
| 2026-04-20 14:18 | 13.20696 | 77.70599 | 3028 ft | 151 kts | 91° |
| 2026-04-20 14:18 | 13.20692 | 77.71654 | 3157 ft | 149 kts | 91° |
| 2026-04-20 14:18 | 13.20690 | 77.72739 | 3227 ft | 153 kts | 91° |
| 2026-04-20 14:19 | 13.20687 | 77.73838 | 3297 ft | 156 kts | 92° |
| 2026-04-20 14:19 | 13.20667 | 77.74970 | 3362 ft | 158 kts | 92° |